createdAt,value
2022-10-28T00:01:24.493Z,98788.38
2022-10-28T00:03:56.173Z,98788.37
2022-10-28T00:06:28.375Z,98787.81
2022-10-28T00:08:56.151Z,98786.20
2022-10-28T00:11:28.335Z,98784.34
2022-10-28T00:13:58.133Z,98787.27
2022-10-28T00:16:29.961Z,98782.73
2022-10-28T00:19:02.652Z,98783.77
2022-10-28T00:21:34.606Z,98787.52
2022-10-28T00:24:02.584Z,98783.52
2022-10-28T00:26:32.102Z,98790.75
2022-10-28T00:29:04.071Z,98779.50
2022-10-28T00:31:33.074Z,98776.31
2022-10-28T00:34:03.811Z,98781.36
2022-10-28T00:36:35.592Z,98780.03
2022-10-28T00:39:11.180Z,98780.03
2022-10-28T00:41:39.893Z,98777.89
2022-10-28T00:44:59.052Z,98781.10
2022-10-28T00:47:41.037Z,98776.55
2022-10-28T00:50:20.246Z,98779.22
2022-10-28T00:52:52.281Z,98776.55
2022-10-28T00:55:21.960Z,98775.48
2022-10-28T00:57:50.815Z,98770.40
2022-10-28T01:00:18.953Z,98769.32
2022-10-28T01:02:49.239Z,98776.78
2022-10-28T01:05:24.883Z,98773.84
2022-10-28T01:07:53.788Z,98771.97
2022-10-28T01:10:27.163Z,98767.69
2022-10-28T01:13:34.743Z,98770.38
2022-10-28T01:16:16.474Z,98773.85
2022-10-28T01:19:18.274Z,98764.79
2022-10-28T01:22:13.984Z,98763.96
2022-10-28T01:24:52.932Z,98766.92
2022-10-28T01:27:57.268Z,98759.95
2022-10-28T01:30:28.869Z,98763.17
2022-10-28T01:33:08.065Z,98775.22
2022-10-28T01:35:59.217Z,98764.53
2022-10-28T01:38:53.318Z,98766.14
2022-10-28T01:41:34.400Z,98767.20
2022-10-28T01:44:31.301Z,98767.46
2022-10-28T01:47:07.536Z,98766.13
2022-10-28T01:49:44.588Z,98766.42
2022-10-28T01:52:16.178Z,98767.46
2022-10-28T01:54:48.145Z,98758.64
2022-10-28T01:57:18.457Z,98763.99
2022-10-28T01:59:48.841Z,98755.71
2022-10-28T02:02:17.691Z,98758.13
2022-10-28T02:04:45.602Z,98750.91
2022-10-28T02:07:13.831Z,98749.56
2022-10-28T02:10:09.521Z,98754.11
2022-10-28T02:12:38.362Z,98756.23
2022-10-28T02:15:28.302Z,98755.44
2022-10-28T02:18:10.992Z,98759.19
2022-10-28T02:20:59.015Z,98761.84
2022-10-28T02:23:53.019Z,98757.28
2022-10-28T02:26:37.492Z,98759.41
2022-10-28T02:29:19.327Z,98759.41
2022-10-28T02:31:57.276Z,98760.75
2022-10-28T02:34:30.089Z,98767.41
2022-10-28T02:37:01.735Z,98762.61
2022-10-28T02:39:37.517Z,98759.41
2022-10-28T02:42:07.076Z,98754.87
2022-10-28T02:44:39.297Z,98748.72
2022-10-28T02:47:12.541Z,98752.98
2022-10-28T02:49:44.097Z,98762.09
2022-10-28T02:52:13.294Z,98757.54
2022-10-28T02:54:55.655Z,98755.12
2022-10-28T02:57:28.072Z,98760.20
2022-10-28T03:00:03.960Z,98758.61
2022-10-28T03:02:32.464Z,98758.34
2022-10-28T03:05:00.212Z,98752.47
2022-10-28T03:07:27.969Z,98755.95
2022-10-28T03:09:55.697Z,98757.28
2022-10-28T03:12:23.349Z,98755.69
2022-10-28T03:14:50.665Z,98764.50
2022-10-28T03:17:18.318Z,98757.02
2022-10-28T03:19:45.943Z,98758.36
2022-10-28T03:22:13.738Z,98754.34
2022-10-28T03:24:41.251Z,98760.48
2022-10-28T03:27:08.905Z,98755.95
2022-10-28T03:29:36.756Z,98747.92
2022-10-28T03:32:04.975Z,98748.47
2022-10-28T03:34:32.611Z,98747.42
2022-10-28T03:37:00.051Z,98754.62
2022-10-28T03:39:27.594Z,98752.75
2022-10-28T03:41:55.374Z,98754.62
2022-10-28T03:44:23.172Z,98750.61
2022-10-28T03:46:50.963Z,98751.95
2022-10-28T03:49:18.789Z,98758.09
2022-10-28T03:51:46.841Z,98755.16
2022-10-28T03:54:14.558Z,98755.96
2022-10-28T03:56:42.298Z,98753.03
2022-10-28T03:59:10.288Z,98754.90
2022-10-28T04:01:38.237Z,98754.62
2022-10-28T04:04:06.467Z,98747.14
2022-10-28T04:06:34.230Z,98743.94
2022-10-28T04:09:02.163Z,98748.22
2022-10-28T04:11:29.628Z,98746.34
2022-10-28T04:13:57.341Z,98744.75
2022-10-28T04:16:24.747Z,98741.55
2022-10-28T04:18:52.381Z,98743.45
2022-10-28T04:21:20.173Z,98739.17
2022-10-28T04:23:48.018Z,98739.98
2022-10-28T04:26:15.611Z,98739.72
2022-10-28T04:28:43.179Z,98740.25
2022-10-28T04:31:11.709Z,98742.39
2022-10-28T04:33:39.545Z,98745.08
2022-10-28T04:36:07.951Z,98739.45
2022-10-28T04:38:35.543Z,98746.69
2022-10-28T04:41:03.572Z,98746.67
2022-10-28T04:43:31.273Z,98734.63
2022-10-28T04:46:00.845Z,98741.87
2022-10-28T04:48:28.586Z,98743.46
2022-10-28T04:50:57.409Z,98738.12
2022-10-28T04:53:25.290Z,98739.74
2022-10-28T04:55:58.452Z,98733.86
2022-10-28T04:58:27.056Z,98737.07
2022-10-28T05:00:54.530Z,98734.91
2022-10-28T05:03:22.319Z,98745.09
2022-10-28T05:05:50.211Z,98735.98
2022-10-28T05:08:18.328Z,98740.25
2022-10-28T05:10:48.146Z,98745.34
2022-10-28T05:13:15.766Z,98746.94
2022-10-28T05:15:43.476Z,98752.04
2022-10-28T05:18:10.988Z,98748.02
2022-10-28T05:20:38.709Z,98748.28
2022-10-28T05:23:06.996Z,98747.21
2022-10-28T05:25:34.617Z,98747.22
2022-10-28T05:28:02.738Z,98749.61
2022-10-28T05:30:30.384Z,98747.77
2022-10-28T05:33:04.243Z,98747.77
2022-10-28T05:35:32.087Z,98752.30
2022-10-28T05:37:59.856Z,98748.83
2022-10-28T05:40:27.524Z,98760.59
2022-10-28T05:42:55.258Z,98758.72
2022-10-28T05:45:23.488Z,98763.82
2022-10-28T05:47:51.240Z,98756.86
2022-10-28T05:50:25.950Z,98769.41
2022-10-28T05:52:56.450Z,98772.89
2022-10-28T05:55:27.859Z,98778.23
2022-10-28T05:57:57.271Z,98771.16
2022-10-28T06:00:26.376Z,98770.97
2022-10-28T06:03:08.295Z,98768.47
2022-10-28T06:05:39.803Z,98774.35
2022-10-28T06:08:07.567Z,98766.62
2022-10-28T06:10:35.235Z,98770.45
2022-10-28T06:13:01.657Z,98772.14
2022-10-28T06:15:29.323Z,98774.37
2022-10-28T06:17:56.842Z,98769.29
2022-10-28T06:20:24.551Z,98777.68
2022-10-28T06:22:55.178Z,98777.44
2022-10-28T06:25:25.453Z,98782.05
2022-10-28T06:27:58.161Z,98788.83
2022-10-28T06:30:26.860Z,98781.92
2022-10-28T06:32:56.058Z,98781.95
2022-10-28T06:35:23.995Z,98782.81
2022-10-28T06:37:57.049Z,98781.55
2022-10-28T06:40:25.562Z,98784.10
2022-10-28T06:43:05.038Z,98783.16
2022-10-28T06:45:33.444Z,98787.13
2022-10-28T06:48:05.592Z,98794.33
2022-10-28T06:50:35.753Z,98793.66
2022-10-28T06:53:12.064Z,98790.33
2022-10-28T06:55:40.233Z,98796.04
2022-10-28T06:58:08.062Z,98791.16
2022-10-28T07:00:37.266Z,98790.19
2022-10-28T07:03:05.255Z,98788.63
2022-10-28T07:05:32.782Z,98787.25
2022-10-28T07:08:00.963Z,98791.36
2022-10-28T07:10:33.136Z,98795.64
2022-10-28T07:13:00.808Z,98797.97
2022-10-28T07:15:30.287Z,98798.58
2022-10-28T07:17:59.698Z,98795.69
2022-10-28T07:20:30.371Z,98792.75
2022-10-28T07:23:02.807Z,98799.44
2022-10-28T07:25:34.990Z,98793.83
2022-10-28T07:28:05.131Z,98798.95
2022-10-28T07:30:33.721Z,98788.30
2022-10-28T07:33:01.132Z,98793.78
2022-10-28T07:35:31.507Z,98792.33
2022-10-28T07:37:59.578Z,98789.17
2022-10-28T07:40:27.721Z,98788.72
2022-10-28T07:42:58.908Z,98791.61
2022-10-28T07:45:27.089Z,98786.53
2022-10-28T07:47:54.409Z,98790.78
2022-10-28T07:50:22.149Z,98790.42
2022-10-28T07:52:50.208Z,98791.00
2022-10-28T07:55:20.463Z,98785.36
2022-10-28T07:57:50.497Z,98785.34
2022-10-28T08:00:19.431Z,98787.66
2022-10-28T08:02:48.940Z,98784.69
2022-10-28T08:05:17.455Z,98784.44
2022-10-28T08:07:46.487Z,98783.31
2022-10-28T08:10:14.229Z,98783.64
2022-10-28T08:12:41.653Z,98778.94
2022-10-28T08:15:10.067Z,98782.58
2022-10-28T08:17:37.648Z,98776.80
2022-10-28T08:20:06.064Z,98777.48
2022-10-28T08:22:33.734Z,98774.48
2022-10-28T08:25:01.623Z,98775.10
2022-10-28T08:27:29.321Z,98774.41
2022-10-28T08:29:56.724Z,98774.91
2022-10-28T08:32:25.309Z,98770.09
2022-10-28T08:34:54.530Z,98771.55
2022-10-28T08:37:23.189Z,98772.98
2022-10-28T08:39:52.141Z,98771.33
2022-10-28T08:42:46.068Z,98767.44
2022-10-28T08:45:37.336Z,98770.50
2022-10-28T08:48:34.491Z,98767.36
2022-10-28T08:51:13.308Z,98770.28
2022-10-28T08:53:54.641Z,98760.58
2022-10-28T08:56:41.687Z,98766.73
2022-10-28T08:59:13.734Z,98760.55
2022-10-28T09:01:50.000Z,98760.08
2022-10-28T09:04:43.721Z,98756.42
2022-10-28T09:07:21.353Z,98762.41
2022-10-28T09:09:51.280Z,98759.99
2022-10-28T09:12:43.074Z,98756.78
2022-10-28T09:15:37.030Z,98754.14
2022-10-28T09:18:21.845Z,98756.03
2022-10-28T09:20:55.628Z,98757.00
2022-10-28T09:23:48.979Z,98755.82
2022-10-28T09:26:21.140Z,98750.55
2022-10-28T09:29:15.209Z,98747.07
2022-10-28T09:31:49.871Z,98747.02
2022-10-28T09:34:31.725Z,98741.54
2022-10-28T09:37:33.422Z,98746.38
2022-10-28T09:40:09.131Z,98736.41
2022-10-28T09:42:43.125Z,98741.75
2022-10-28T09:45:27.305Z,98738.98
2022-10-28T09:48:12.183Z,98734.66
2022-10-28T09:50:40.409Z,98732.09
2022-10-28T09:53:36.039Z,98733.23
2022-10-28T09:56:05.734Z,98733.47
2022-10-28T09:58:39.116Z,98729.59
2022-10-28T10:01:06.796Z,98728.84
2022-10-28T10:03:36.476Z,98724.38
2022-10-28T10:06:15.598Z,98723.02
2022-10-28T10:08:44.651Z,98724.12
2022-10-28T10:11:20.056Z,98718.27
2022-10-28T10:13:48.296Z,98722.20
2022-10-28T10:16:39.544Z,98715.16
2022-10-28T10:19:10.707Z,98716.66
2022-10-28T10:21:51.471Z,98713.56
2022-10-28T10:24:35.324Z,98709.88
2022-10-28T10:27:11.390Z,98704.87
2022-10-28T10:29:45.828Z,98712.81
2022-10-28T10:32:21.598Z,98708.44
2022-10-28T10:35:06.247Z,98709.25
2022-10-28T10:37:36.272Z,98705.94
2022-10-28T10:40:32.918Z,98702.05
2022-10-28T10:43:27.167Z,98704.19
2022-10-28T10:46:17.293Z,98707.22
2022-10-28T10:48:45.259Z,98701.25
2022-10-28T10:51:25.832Z,98700.52
2022-10-28T10:53:59.392Z,98700.03
2022-10-28T10:56:30.565Z,98697.22
2022-10-28T10:59:02.787Z,98697.77
2022-10-28T11:01:40.660Z,98691.02
2022-10-28T11:04:15.691Z,98691.52
2022-10-28T11:06:47.980Z,98690.23
2022-10-28T11:09:32.792Z,98687.41
2022-10-28T11:12:00.899Z,98685.48
2022-10-28T11:14:32.462Z,98685.00
2022-10-28T11:17:02.341Z,98681.05
2022-10-28T11:19:37.803Z,98684.05
2022-10-28T11:22:33.479Z,98677.08
2022-10-28T11:25:18.916Z,98675.34
2022-10-28T11:28:11.781Z,98672.27
2022-10-28T11:31:24.003Z,98669.61
2022-10-28T11:34:27.038Z,98672.47
2022-10-28T11:37:30.580Z,98665.61
2022-10-28T11:40:15.661Z,98663.46
2022-10-28T11:43:23.125Z,98658.07
2022-10-28T11:46:11.070Z,98653.91
2022-10-28T11:48:59.237Z,98646.44
2022-10-28T11:51:56.649Z,98649.31
2022-10-28T11:54:55.071Z,98645.08
2022-10-28T11:57:46.110Z,98639.75
2022-10-28T12:01:09.120Z,98634.52
2022-10-28T12:03:57.995Z,98639.09
2022-10-28T12:06:48.714Z,98636.19
2022-10-28T12:09:41.762Z,98642.00
2022-10-28T12:12:15.599Z,98638.05
2022-10-28T12:15:03.419Z,98631.43
2022-10-28T12:17:51.755Z,98629.98
2022-10-28T12:20:26.993Z,98623.73
2022-10-28T12:23:00.001Z,98623.45
2022-10-28T12:25:32.559Z,98617.78
2022-10-28T12:28:07.623Z,98619.98
2022-10-28T12:30:40.003Z,98617.58
2022-10-28T12:33:18.765Z,98615.80
2022-10-28T12:36:08.343Z,98619.16
2022-10-28T12:38:47.131Z,98617.33
2022-10-28T12:41:42.805Z,98608.77
2022-10-28T12:44:18.536Z,98607.77
2022-10-28T12:47:18.143Z,98612.49
2022-10-28T12:49:56.590Z,98610.09
2022-10-28T12:52:49.486Z,98612.04
2022-10-28T12:55:37.373Z,98606.78
2022-10-28T12:58:34.697Z,98598.84
2022-10-28T13:01:15.981Z,98598.72
2022-10-28T13:03:43.519Z,98605.18
2022-10-28T13:06:34.293Z,98601.75
2022-10-28T13:09:44.911Z,98598.77
2022-10-28T13:12:38.449Z,98602.16
2022-10-28T13:15:41.722Z,98600.30
2022-10-28T13:18:47.846Z,98598.61
2022-10-28T13:21:26.885Z,98598.59
2022-10-28T13:24:14.481Z,98596.83
2022-10-28T13:26:45.322Z,98594.50
2022-10-28T13:29:29.596Z,98594.42
2022-10-28T13:31:57.282Z,98594.45
2022-10-28T13:34:33.090Z,98592.59
2022-10-28T13:37:03.563Z,98595.16
2022-10-28T13:39:44.184Z,98596.97
2022-10-28T13:42:22.031Z,98595.31
2022-10-28T13:45:00.623Z,98601.77
2022-10-28T13:47:32.313Z,98597.14
2022-10-28T13:50:11.954Z,98597.02
2022-10-28T13:52:44.658Z,98595.59
2022-10-28T13:55:26.393Z,98591.89
2022-10-28T13:58:10.209Z,98593.98
2022-10-28T14:00:38.154Z,98593.84
2022-10-28T14:03:21.358Z,98592.18
2022-10-28T14:05:53.248Z,98590.05
2022-10-28T14:08:28.975Z,98583.95
2022-10-28T14:11:07.263Z,98588.09
2022-10-28T14:13:51.952Z,98581.62
2022-10-28T14:16:28.664Z,98580.27
2022-10-28T14:19:14.527Z,98583.25
2022-10-28T14:22:02.660Z,98578.28
2022-10-28T14:24:35.866Z,98573.19
2022-10-28T14:27:12.077Z,98576.81
2022-10-28T14:29:56.840Z,98579.66
2022-10-28T14:32:51.334Z,98573.54
2022-10-28T14:35:23.646Z,98574.23
2022-10-28T14:38:05.494Z,98574.69
2022-10-28T14:40:44.148Z,98578.19
2022-10-28T14:43:34.477Z,98579.77
2022-10-28T14:46:31.544Z,98575.52
2022-10-28T14:49:02.866Z,98585.24
2022-10-28T14:51:41.374Z,98582.95
2022-10-28T14:54:16.056Z,98576.80
2022-10-28T14:56:45.179Z,98574.19
2022-10-28T14:59:37.926Z,98581.05
2022-10-28T15:02:17.151Z,98581.71
2022-10-28T15:04:50.358Z,98575.99
2022-10-28T15:07:20.434Z,98570.52
2022-10-28T15:09:51.382Z,98577.80
2022-10-28T15:12:22.581Z,98575.79
2022-10-28T15:14:53.391Z,98579.86
2022-10-28T15:17:28.201Z,98581.57
2022-10-28T15:19:59.245Z,98577.73
2022-10-28T15:22:32.535Z,98582.83
2022-10-28T15:25:08.167Z,98583.37
2022-10-28T15:27:38.904Z,98581.67
2022-10-28T15:30:19.819Z,98578.38
2022-10-28T15:32:47.516Z,98578.54
2022-10-28T15:35:32.570Z,98582.00
2022-10-28T15:38:01.977Z,98585.34
2022-10-28T15:40:32.566Z,98591.11
2022-10-28T15:43:04.449Z,98588.95
2022-10-28T15:45:39.730Z,98584.09
2022-10-28T15:48:11.394Z,98581.17
2022-10-28T15:50:39.489Z,98584.65
2022-10-28T15:53:20.505Z,98577.34
2022-10-28T15:56:07.151Z,98578.50
2022-10-28T15:58:46.391Z,98585.66
2022-10-28T16:01:39.168Z,98581.67
2022-10-28T16:04:24.558Z,98586.05
2022-10-28T16:06:57.644Z,98584.75
2022-10-28T16:09:32.106Z,98580.09
2022-10-28T16:12:04.573Z,98582.22
2022-10-28T16:14:44.855Z,98584.34
2022-10-28T16:17:23.355Z,98581.84
2022-10-28T16:19:56.389Z,98587.69
2022-10-28T16:22:26.845Z,98584.37
2022-10-28T16:24:54.762Z,98585.45
2022-10-28T16:27:26.182Z,98585.10
2022-10-28T16:29:54.014Z,98580.14
2022-10-28T16:32:35.420Z,98580.30
2022-10-28T16:35:19.139Z,98578.30
2022-10-28T16:37:50.730Z,98573.66
2022-10-28T16:40:49.530Z,98580.88
2022-10-28T16:42:47.454Z,98582.65
2022-10-28T16:45:17.936Z,98590.42
2022-10-28T16:47:45.916Z,98592.48
2022-10-28T16:50:14.052Z,98594.29
2022-10-28T16:52:41.497Z,98590.14
2022-10-28T16:55:18.942Z,98594.32
2022-10-28T16:57:46.456Z,98596.64
2022-10-28T17:00:14.451Z,98596.38
2022-10-28T17:02:42.787Z,98600.63
2022-10-28T17:05:18.664Z,98613.46
2022-10-28T17:07:46.367Z,98610.89
2022-10-28T17:10:14.668Z,98613.74
2022-10-28T17:12:42.358Z,98616.28
2022-10-28T17:15:10.753Z,98612.94
2022-10-28T17:17:38.333Z,98609.56
2022-10-28T17:20:07.204Z,98615.81
2022-10-28T17:22:35.165Z,98613.52
2022-10-28T17:25:03.021Z,98613.86
2022-10-28T17:27:30.623Z,98613.66
2022-10-28T17:29:58.188Z,98606.48
2022-10-28T17:32:27.822Z,98610.31
2022-10-28T17:34:55.343Z,98607.69
2022-10-28T17:37:26.470Z,98612.87
2022-10-28T17:42:22.306Z,98614.66
2022-10-28T17:44:49.965Z,98614.17
2022-10-28T17:47:17.788Z,98612.13
2022-10-28T17:49:45.391Z,98614.06
2022-10-28T17:52:13.567Z,98609.58
2022-10-28T17:54:41.102Z,98608.81
2022-10-28T17:57:08.798Z,98608.36
2022-10-28T17:59:36.607Z,98611.66
2022-10-28T18:02:04.776Z,98610.12
2022-10-28T18:04:32.710Z,98609.67
2022-10-28T18:07:00.615Z,98612.45
2022-10-28T18:09:30.405Z,98611.13
2022-10-28T18:12:01.496Z,98604.47
2022-10-28T18:14:30.163Z,98603.22
2022-10-28T18:16:57.873Z,98606.23
2022-10-28T18:19:25.501Z,98604.70
2022-10-28T18:21:53.034Z,98600.45
2022-10-28T18:24:23.412Z,98605.91
2022-10-28T18:26:50.086Z,98602.17
2022-10-28T18:29:18.135Z,98608.95
2022-10-28T18:31:48.536Z,98606.59
2022-10-28T18:34:16.825Z,98603.69
2022-10-28T18:36:44.618Z,98613.11
2022-10-28T18:39:12.220Z,98607.27
2022-10-28T18:41:42.015Z,98609.70
2022-10-28T18:44:13.734Z,98612.16
2022-10-28T18:46:41.658Z,98612.77
2022-10-28T18:49:09.610Z,98613.91
2022-10-28T18:51:37.957Z,98612.61
2022-10-28T18:54:06.288Z,98610.55
2022-10-28T18:56:34.110Z,98613.02
2022-10-28T18:59:04.221Z,98610.41
2022-10-28T19:01:33.099Z,98617.16
2022-10-28T19:04:03.663Z,98612.41
2022-10-28T19:06:33.496Z,98613.78
2022-10-28T19:09:04.416Z,98610.33
2022-10-28T19:11:33.595Z,98616.26
2022-10-28T19:14:04.807Z,98616.02
2022-10-28T19:16:34.790Z,98623.58
2022-10-28T19:19:04.850Z,98621.70
2022-10-28T19:21:33.850Z,98616.66
2022-10-28T19:24:01.878Z,98620.20
2022-10-28T19:26:31.348Z,98630.69
2022-10-28T19:29:01.704Z,98626.16
2022-10-28T19:31:30.306Z,98629.39
2022-10-28T19:33:57.776Z,98628.34
2022-10-28T19:36:30.284Z,98631.03
2022-10-28T19:38:58.813Z,98634.01
2022-10-28T19:41:29.048Z,98629.47
2022-10-28T19:44:02.409Z,98635.66
2022-10-28T19:46:34.556Z,98638.34
2022-10-28T19:49:05.249Z,98632.49
2022-10-28T19:51:37.096Z,98637.33
2022-10-28T19:54:09.442Z,98633.90
2022-10-28T19:56:38.707Z,98635.55
2022-10-28T19:59:06.818Z,98636.11
2022-10-28T20:01:37.876Z,98634.53
2022-10-28T20:04:07.546Z,98636.17
2022-10-28T20:06:38.523Z,98637.77
2022-10-28T20:09:06.783Z,98632.72
2022-10-28T20:11:37.411Z,98633.81
2022-10-28T20:14:10.760Z,98642.69
2022-10-28T20:16:43.308Z,98643.20
2022-10-28T20:19:11.659Z,98644.58
2022-10-28T20:21:39.779Z,98641.36
2022-10-28T20:24:08.201Z,98645.37
2022-10-28T20:26:37.973Z,98644.03
2022-10-28T20:29:09.403Z,98646.70
2022-10-28T20:31:38.383Z,98651.53
2022-10-28T20:34:07.565Z,98648.86
2022-10-28T20:36:45.272Z,98654.51
2022-10-28T20:39:16.338Z,98652.37
2022-10-28T20:41:45.972Z,98659.09
2022-10-28T20:44:13.971Z,98655.91
2022-10-28T20:46:42.087Z,98655.11
2022-10-28T20:49:09.985Z,98656.46
2022-10-28T20:51:37.691Z,98659.17
2022-10-28T20:54:06.201Z,98660.78
2022-10-28T20:56:36.768Z,98663.20
2022-10-28T20:59:05.168Z,98658.14
2022-10-28T21:01:37.379Z,98663.00
2022-10-28T21:04:08.962Z,98669.69
2022-10-28T21:06:37.962Z,98656.59
2022-10-28T21:09:06.088Z,98659.56
2022-10-28T21:11:33.941Z,98663.58
2022-10-28T21:14:04.708Z,98664.12
2022-10-28T21:16:32.484Z,98660.94
2022-10-28T21:19:00.410Z,98663.11
2022-10-28T21:21:28.949Z,98666.87
2022-10-28T21:23:58.286Z,98676.23
2022-10-28T21:26:26.726Z,98678.14
2022-10-28T21:28:55.813Z,98677.06
2022-10-28T21:31:24.126Z,98672.27
2022-10-28T21:33:52.516Z,98669.85
2022-10-28T21:36:21.932Z,98667.45
2022-10-28T21:38:55.296Z,98673.34
2022-10-28T21:41:23.904Z,98677.64
2022-10-28T21:43:53.401Z,98676.84
2022-10-28T21:46:22.819Z,98675.79
2022-10-28T21:48:52.446Z,98672.03
2022-10-28T21:51:20.145Z,98673.38
2022-10-28T21:53:47.918Z,98670.97
2022-10-28T21:56:19.568Z,98678.45
2022-10-28T21:58:49.969Z,98677.39
2022-10-28T22:01:23.487Z,98676.34
2022-10-28T22:03:54.128Z,98668.31
2022-10-28T22:06:22.368Z,98670.70
2022-10-28T22:08:55.125Z,98668.56
2022-10-28T22:11:23.749Z,98673.92
2022-10-28T22:14:00.672Z,98677.13
2022-10-28T22:16:31.113Z,98676.88
2022-10-28T22:19:01.519Z,98679.27
2022-10-28T22:21:33.087Z,98667.52
2022-10-28T22:24:00.928Z,98670.44
2022-10-28T22:26:30.328Z,98668.31
2022-10-28T22:28:58.061Z,98661.34
2022-10-28T22:31:30.491Z,98667.48
2022-10-28T22:33:58.678Z,98661.63
2022-10-28T22:36:29.060Z,98664.55
2022-10-28T22:38:56.763Z,98666.43
2022-10-28T22:41:29.920Z,98670.19
2022-10-28T22:44:01.813Z,98660.82
2022-10-28T22:46:36.078Z,98661.90
2022-10-28T22:49:04.048Z,98660.82
2022-10-28T22:51:32.171Z,98656.55
2022-10-28T22:53:59.889Z,98655.20
2022-10-28T22:56:28.070Z,98664.02
2022-10-28T22:59:01.230Z,98652.81
2022-10-28T23:01:29.905Z,98653.06
2022-10-28T23:03:57.854Z,98658.42
2022-10-28T23:06:28.032Z,98658.95
2022-10-28T23:08:55.669Z,98654.40
2022-10-28T23:11:23.446Z,98650.39
2022-10-28T23:13:53.328Z,98651.22
2022-10-28T23:16:22.763Z,98650.14
2022-10-28T23:18:52.341Z,98650.67
2022-10-28T23:21:23.834Z,98651.46
2022-10-28T23:23:59.705Z,98648.78
2022-10-28T23:26:29.290Z,98646.91
2022-10-28T23:28:59.111Z,98643.98
2022-10-28T23:31:27.637Z,98645.57
2022-10-28T23:33:55.692Z,98645.06
2022-10-28T23:36:23.417Z,98643.44
2022-10-28T23:38:52.008Z,98635.41
2022-10-28T23:41:20.476Z,98625.52
2022-10-28T23:43:48.998Z,98633.83
2022-10-28T23:46:17.093Z,98635.16
2022-10-28T23:48:44.637Z,98642.63
2022-10-28T23:51:12.534Z,98633.02
2022-10-28T23:53:39.924Z,98637.59
2022-10-28T23:56:08.255Z,98635.45
2022-10-28T23:58:35.932Z,98632.77
